Time;durP1;ratioP1;P1;durP2;ratioP2;P2;SDS_P1;SDS_P2;PMS_P1;PMS_P2;Temp;Humidity;BMP_temperature;BMP_pressure;BME280_temperature;BME280_humidity;BME280_pressure;Samples;Min_cycle;Max_cycle;Signal;HPM_P1;HPM_P2
2022/06/02 00:02:32;;;;;;;4.17;3.17;;;;;;;;;;5097367;28;20459;-71
2022/06/02 00:05:04;;;;;;;8.43;4.07;;;;;;;;;;5097835;28;20451;-70
2022/06/02 00:07:37;;;;;;;4.90;3.53;;;;;;;;;;5097561;28;20578;-71
2022/06/02 00:10:07;;;;;;;4.47;3.23;;;;;;;;;;5097889;28;20456;-71
2022/06/02 00:12:41;;;;;;;5.10;3.57;;;;;;;;;;5096827;28;20850;-71
2022/06/02 00:15:20;;;;;;;3.43;3.13;;;;;;;;;;5096866;28;20552;-71
2022/06/02 00:17:52;;;;;;;4.23;3.33;;;;;;;;;;5097187;28;20463;-71
2022/06/02 00:20:22;;;;;;;3.67;3.30;;;;;;;;;;5097149;28;20466;-70
2022/06/02 00:22:56;;;;;;;4.33;3.70;;;;;;;;;;5097483;28;20889;-71
2022/06/02 00:25:28;;;;;;;4.40;3.90;;;;;;;;;;5097497;28;20451;-71
2022/06/02 00:28:00;;;;;;;3.73;3.17;;;;;;;;;;5097502;28;20468;-72
2022/06/02 00:30:31;;;;;;;5.37;3.67;;;;;;;;;;5097571;28;20464;-70
2022/06/02 00:33:02;;;;;;;4.83;4.00;;;;;;;;;;5097314;28;20477;-70
2022/06/02 00:35:34;;;;;;;5.43;3.93;;;;;;;;;;5096713;28;20747;-70
2022/06/02 00:38:04;;;;;;;3.97;3.43;;;;;;;;;;5097516;28;20460;-71
2022/06/02 00:40:33;;;;;;;3.90;3.50;;;;;;;;;;5097739;28;20462;-70
2022/06/02 00:43:15;;;;;;;4.23;3.70;;;;;;;;;;5096741;28;20735;-70
2022/06/02 00:45:46;;;;;;;4.30;3.90;;;;;;;;;;5096648;28;20567;-72
2022/06/02 00:48:18;;;;;;;4.50;3.93;;;;;;;;;;5096589;28;20686;-71
2022/06/02 00:50:58;;;;;;;6.13;4.00;;;;;;;;;;5097206;28;20489;-71
2022/06/02 00:53:33;;;;;;;4.20;3.80;;;;;;;;;;5097329;28;20495;-71
2022/06/02 00:59:07;;;;;;;5.57;3.37;;;;;;;;;;5055386;28;20439;-71
2022/06/02 01:01:38;;;;;;;4.90;4.40;;;;;;;;;;5096426;28;20778;-71
2022/06/02 01:04:09;;;;;;;4.23;3.73;;;;;;;;;;5096891;28;20513;-71
2022/06/02 01:06:54;;;;;;;5.60;4.40;;;;;;;;;;5096535;28;20498;-70
2022/06/02 01:09:36;;;;;;;5.10;4.60;;;;;;;;;;5084336;28;20501;-72
2022/06/02 01:12:11;;;;;;;4.20;3.70;;;;;;;;;;5079907;28;20463;-69
2022/06/02 01:14:54;;;;;;;4.53;4.00;;;;;;;;;;5097059;28;20494;-72
2022/06/02 01:17:26;;;;;;;4.57;4.13;;;;;;;;;;5096815;28;20463;-71
2022/06/02 01:19:59;;;;;;;4.40;4.00;;;;;;;;;;5096257;28;20455;-71
2022/06/02 01:22:38;;;;;;;4.50;4.10;;;;;;;;;;5096712;28;20471;-71
2022/06/02 01:25:21;;;;;;;4.43;4.03;;;;;;;;;;5096356;28;20863;-71
2022/06/02 01:28:06;;;;;;;4.03;3.57;;;;;;;;;;5095903;28;20548;-71
2022/06/02 01:30:53;;;;;;;6.43;4.90;;;;;;;;;;5095736;28;20459;-71
2022/06/02 01:33:27;;;;;;;4.70;4.00;;;;;;;;;;5096013;28;20558;-71
2022/06/02 01:36:01;;;;;;;7.10;5.07;;;;;;;;;;5096189;28;20465;-71
2022/06/02 01:38:32;;;;;;;5.13;4.63;;;;;;;;;;5096412;28;20471;-71
2022/06/02 01:41:06;;;;;;;5.00;4.00;;;;;;;;;;5095761;28;20514;-71
2022/06/02 01:43:37;;;;;;;6.03;4.43;;;;;;;;;;5096380;28;20498;-71
2022/06/02 01:46:23;;;;;;;6.00;5.00;;;;;;;;;;5096578;28;20455;-71
2022/06/02 01:48:57;;;;;;;5.67;4.50;;;;;;;;;;5095898;28;20485;-71
2022/06/02 01:51:31;;;;;;;5.80;4.50;;;;;;;;;;5096725;28;21444;-71
2022/06/02 01:54:04;;;;;;;6.73;5.23;;;;;;;;;;5096704;28;20494;-71
2022/06/02 01:56:43;;;;;;;6.60;4.70;;;;;;;;;;5096214;28;20542;-71
2022/06/02 01:59:21;;;;;;;8.53;5.30;;;;;;;;;;5096122;28;20878;-71
2022/06/02 02:02:04;;;;;;;6.93;5.53;;;;;;;;;;5096637;28;20851;-71
2022/06/02 02:04:37;;;;;;;6.20;5.23;;;;;;;;;;5095805;28;20456;-71
2022/06/02 02:07:09;;;;;;;5.50;4.50;;;;;;;;;;5095699;28;20538;-71
2022/06/02 02:09:43;;;;;;;6.53;5.83;;;;;;;;;;5096485;28;20851;-71
2022/06/02 02:12:14;;;;;;;5.80;5.23;;;;;;;;;;5096007;28;20467;-71
2022/06/02 02:14:53;;;;;;;7.07;5.30;;;;;;;;;;5096363;28;20492;-71
2022/06/02 02:17:40;;;;;;;6.73;5.43;;;;;;;;;;5095991;28;20474;-71
2022/06/02 02:20:13;;;;;;;7.03;5.87;;;;;;;;;;5095875;28;20466;-71
2022/06/02 02:22:45;;;;;;;6.53;5.53;;;;;;;;;;5095991;28;20477;-71
2022/06/02 02:25:15;;;;;;;7.60;6.03;;;;;;;;;;5095226;28;20997;-71
2022/06/02 02:28:05;;;;;;;6.13;5.53;;;;;;;;;;5095995;28;20456;-71
2022/06/02 02:30:38;;;;;;;6.40;5.00;;;;;;;;;;5095785;28;20447;-71
2022/06/02 02:33:13;;;;;;;6.20;5.60;;;;;;;;;;5096827;28;20528;-71
2022/06/02 02:35:45;;;;;;;7.23;6.30;;;;;;;;;;5099430;28;20482;-71
2022/06/02 02:38:20;;;;;;;8.37;6.50;;;;;;;;;;5099848;28;20456;-71
2022/06/02 02:40:50;;;;;;;6.37;5.50;;;;;;;;;;5099359;28;20538;-71
2022/06/02 02:43:20;;;;;;;7.33;5.83;;;;;;;;;;5115855;27;21123;-71
2022/06/02 02:45:51;;;;;;;6.77;6.10;;;;;;;;;;5121195;27;20464;-71
2022/06/02 02:48:24;;;;;;;7.40;5.20;;;;;;;;;;5120520;27;20454;-71
2022/06/02 02:50:54;;;;;;;8.60;6.23;;;;;;;;;;5120787;27;20454;-71
2022/06/02 02:53:23;;;;;;;7.20;6.50;;;;;;;;;;5120235;27;20465;-71
2022/06/02 02:55:55;;;;;;;10.13;7.13;;;;;;;;;;5119315;27;20478;-71
2022/06/02 02:58:26;;;;;;;6.83;6.13;;;;;;;;;;5119702;27;20465;-71
2022/06/02 03:00:59;;;;;;;6.60;5.53;;;;;;;;;;5119814;27;20542;-71
2022/06/02 03:03:33;;;;;;;7.53;5.70;;;;;;;;;;5119115;27;20458;-71
2022/06/02 03:06:09;;;;;;;7.07;6.30;;;;;;;;;;5120957;27;20446;-71
2022/06/02 03:08:42;;;;;;;7.10;6.20;;;;;;;;;;5119720;27;20450;-71
2022/06/02 03:11:18;;;;;;;8.50;7.03;;;;;;;;;;5120367;27;20477;-71
2022/06/02 03:13:49;;;;;;;9.00;6.63;;;;;;;;;;5120015;27;20451;-71
2022/06/02 03:16:18;;;;;;;7.70;6.27;;;;;;;;;;5119100;27;20447;-71
2022/06/02 03:18:54;;;;;;;9.20;6.17;;;;;;;;;;5119597;27;20447;-71
2022/06/02 03:21:26;;;;;;;8.87;6.73;;;;;;;;;;5119529;27;20456;-71
2022/06/02 03:24:04;;;;;;;8.33;6.33;;;;;;;;;;5119012;27;20886;-71
2022/06/02 03:26:41;;;;;;;7.13;6.33;;;;;;;;;;5119566;27;20462;-71
2022/06/02 03:29:16;;;;;;;7.43;6.07;;;;;;;;;;5119352;27;20454;-71
2022/06/02 03:31:48;;;;;;;9.40;7.10;;;;;;;;;;5119661;27;20771;-71
2022/06/02 03:34:23;;;;;;;11.73;7.23;;;;;;;;;;5119450;27;20519;-71
2022/06/02 03:37:09;;;;;;;8.20;6.37;;;;;;;;;;5118735;27;20457;-71
2022/06/02 03:39:43;;;;;;;8.63;6.90;;;;;;;;;;5118518;27;20517;-71
2022/06/02 03:42:17;;;;;;;8.50;6.53;;;;;;;;;;5119065;27;20553;-71
2022/06/02 03:45:18;;;;;;;7.20;6.50;;;;;;;;;;5112077;28;20510;-71
2022/06/02 03:48:05;;;;;;;8.07;6.10;;;;;;;;;;5079272;28;20495;-71
2022/06/02 03:50:49;;;;;;;7.53;6.70;;;;;;;;;;5117593;27;20455;-71
2022/06/02 03:53:28;;;;;;;8.30;7.37;;;;;;;;;;5118081;27;20500;-71
2022/06/02 03:56:00;;;;;;;9.83;6.90;;;;;;;;;;5118090;27;20533;-71
2022/06/02 03:58:57;;;;;;;7.63;6.73;;;;;;;;;;5117954;27;20489;-71
2022/06/02 04:01:27;;;;;;;8.97;7.07;;;;;;;;;;5117721;27;20966;-71
2022/06/02 04:04:09;;;;;;;9.03;6.87;;;;;;;;;;5118856;27;20903;-71
2022/06/02 04:06:48;;;;;;;9.50;7.00;;;;;;;;;;5119008;27;20464;-71
2022/06/02 04:09:29;;;;;;;8.47;6.30;;;;;;;;;;5117538;27;20978;-71
2022/06/02 04:15:07;;;;;;;8.50;6.70;;;;;;;;;;5118491;27;20473;-71
2022/06/02 04:17:45;;;;;;;8.50;7.17;;;;;;;;;;5117602;27;20743;-72
2022/06/02 04:20:36;;;;;;;8.83;7.47;;;;;;;;;;5118514;27;20529;-70
2022/06/02 04:23:15;;;;;;;13.10;8.17;;;;;;;;;;5118351;27;20459;-71
2022/06/02 04:25:46;;;;;;;10.57;8.00;;;;;;;;;;5117570;27;20458;-71
2022/06/02 04:28:19;;;;;;;10.10;8.00;;;;;;;;;;5117677;27;20473;-71
2022/06/02 04:30:53;;;;;;;9.50;8.00;;;;;;;;;;5116333;27;20450;-71
2022/06/02 04:33:24;;;;;;;12.07;9.10;;;;;;;;;;5117690;27;20527;-72
2022/06/02 04:35:57;;;;;;;10.83;8.70;;;;;;;;;;5117724;27;20487;-72
2022/06/02 04:38:31;;;;;;;11.40;9.33;;;;;;;;;;5097388;28;20528;-71
2022/06/02 04:41:04;;;;;;;11.13;9.07;;;;;;;;;;5097335;28;20913;-71
2022/06/02 04:43:37;;;;;;;11.67;8.30;;;;;;;;;;5098074;28;20452;-70
2022/06/02 04:46:12;;;;;;;10.30;8.73;;;;;;;;;;5106656;27;20874;-71
2022/06/02 04:48:43;;;;;;;10.93;9.20;;;;;;;;;;5116922;27;20450;-72
2022/06/02 04:51:17;;;;;;;13.27;9.83;;;;;;;;;;5117893;27;20458;-71
2022/06/02 04:53:48;;;;;;;10.03;8.30;;;;;;;;;;5116996;27;20738;-71
2022/06/02 04:56:21;;;;;;;9.30;7.50;;;;;;;;;;5116303;28;20482;-71
2022/06/02 04:58:52;;;;;;;9.03;7.00;;;;;;;;;;5096471;28;20452;-71
2022/06/02 05:01:34;;;;;;;8.23;7.33;;;;;;;;;;5096258;28;20459;-71
2022/06/02 05:04:10;;;;;;;9.07;8.17;;;;;;;;;;5096480;28;20451;-71
2022/06/02 05:06:48;;;;;;;8.37;6.80;;;;;;;;;;5095550;28;20463;-71
2022/06/02 05:09:24;;;;;;;9.20;6.93;;;;;;;;;;5094605;28;20466;-73
2022/06/02 05:11:58;;;;;;;8.00;7.03;;;;;;;;;;5095687;28;20490;-72
2022/06/02 05:14:30;;;;;;;7.80;6.23;;;;;;;;;;5114250;27;20459;-71
2022/06/02 05:17:01;;;;;;;11.33;7.70;;;;;;;;;;5115437;27;20449;-72
2022/06/02 05:19:47;;;;;;;10.30;6.40;;;;;;;;;;5113793;28;20474;-72
2022/06/02 05:22:30;;;;;;;7.40;6.10;;;;;;;;;;5114707;27;20450;-72
2022/06/02 05:25:15;;;;;;;8.03;6.00;;;;;;;;;;5114366;28;20465;-72
2022/06/02 05:28:04;;;;;;;6.63;5.93;;;;;;;;;;5114845;28;20450;-71
2022/06/02 05:30:52;;;;;;;8.03;5.87;;;;;;;;;;5113981;28;20462;-71
2022/06/02 05:33:43;;;;;;;9.00;4.97;;;;;;;;;;5113699;28;20455;-71
2022/06/02 05:36:23;;;;;;;7.43;4.83;;;;;;;;;;5113928;28;20738;-71
2022/06/02 05:38:58;;;;;;;5.80;4.87;;;;;;;;;;5114872;28;20557;-71
2022/06/02 05:41:35;;;;;;;6.20;4.70;;;;;;;;;;5112660;28;20487;-71
2022/06/02 05:44:08;;;;;;;6.80;5.43;;;;;;;;;;5114336;28;20483;-71
2022/06/02 05:46:43;;;;;;;6.50;4.83;;;;;;;;;;5097299;28;20458;-71
2022/06/02 05:49:17;;;;;;;5.60;4.90;;;;;;;;;;5093090;28;21134;-71
2022/06/02 05:51:52;;;;;;;8.30;5.37;;;;;;;;;;5096628;28;20803;-71
2022/06/02 05:54:28;;;;;;;7.33;5.10;;;;;;;;;;5107637;28;20748;-72
2022/06/02 05:57:02;;;;;;;5.03;4.57;;;;;;;;;;5110752;28;20478;-71
2022/06/02 05:59:38;;;;;;;5.10;4.60;;;;;;;;;;5113262;28;20462;-72
2022/06/02 06:02:20;;;;;;;6.00;4.43;;;;;;;;;;5113154;28;20439;-71
2022/06/02 06:05:03;;;;;;;7.77;4.27;;;;;;;;;;5113406;28;20462;-71
2022/06/02 06:07:38;;;;;;;5.87;5.13;;;;;;;;;;5109832;28;20446;-71
2022/06/02 06:10:09;;;;;;;5.30;4.63;;;;;;;;;;5115056;27;20611;-71
2022/06/02 06:12:57;;;;;;;4.97;4.27;;;;;;;;;;5117520;27;20767;-71
2022/06/02 06:15:32;;;;;;;7.50;4.93;;;;;;;;;;5111957;27;20519;-71
2022/06/02 06:18:08;;;;;;;7.87;4.40;;;;;;;;;;5116486;27;20447;-71
2022/06/02 06:20:53;;;;;;;5.97;4.40;;;;;;;;;;5097585;28;20469;-73
2022/06/02 06:23:38;;;;;;;5.13;4.27;;;;;;;;;;5107069;28;20839;-73
2022/06/02 06:26:13;;;;;;;4.17;3.50;;;;;;;;;;5118437;27;20495;-71
2022/06/02 06:28:47;;;;;;;5.00;4.27;;;;;;;;;;5117836;27;20461;-71
2022/06/02 06:31:23;;;;;;;4.17;3.50;;;;;;;;;;5118150;27;20486;-70
2022/06/02 06:34:06;;;;;;;9.57;3.80;;;;;;;;;;5118405;27;20458;-71
2022/06/02 06:36:49;;;;;;;6.40;5.13;;;;;;;;;;5118404;27;20486;-72
2022/06/02 06:39:24;;;;;;;5.40;3.57;;;;;;;;;;5117889;27;20451;-71
2022/06/02 06:42:02;;;;;;;5.47;3.30;;;;;;;;;;5118481;27;20451;-71
2022/06/02 06:44:35;;;;;;;6.20;2.77;;;;;;;;;;5118039;27;20519;-72
2022/06/02 06:47:08;;;;;;;2.40;1.80;;;;;;;;;;5117128;27;20458;-71
2022/06/02 06:49:54;;;;;;;3.57;1.70;;;;;;;;;;5117509;27;20553;-70
2022/06/02 06:52:43;;;;;;;4.23;1.80;;;;;;;;;;5117532;28;20481;-71
2022/06/02 06:58:09;;;;;;;4.80;2.20;;;;;;;;;;5105458;27;20477;-70
2022/06/02 07:00:46;;;;;;;2.37;1.67;;;;;;;;;;5096979;28;20463;-71
2022/06/02 07:03:21;;;;;;;2.77;2.00;;;;;;;;;;5096896;28;20451;-70
2022/06/02 07:05:53;;;;;;;6.80;3.17;;;;;;;;;;5113506;28;20803;-70
2022/06/02 07:08:26;;;;;;;3.47;1.60;;;;;;;;;;5097467;28;20902;-71
2022/06/02 07:10:56;;;;;;;4.40;2.00;;;;;;;;;;5096662;28;21005;-70
2022/06/02 07:13:30;;;;;;;2.50;1.57;;;;;;;;;;5105601;27;20574;-70
2022/06/02 07:16:01;;;;;;;3.10;1.97;;;;;;;;;;5109851;28;20899;-70
2022/06/02 07:18:36;;;;;;;3.10;1.73;;;;;;;;;;5114355;27;20465;-70
2022/06/02 07:21:09;;;;;;;4.10;2.07;;;;;;;;;;5114761;27;20534;-71
2022/06/02 07:23:43;;;;;;;5.57;1.63;;;;;;;;;;5117100;27;20460;-71
2022/06/02 07:26:15;;;;;;;3.53;2.53;;;;;;;;;;5116889;27;20485;-71
2022/06/02 07:28:53;;;;;;;2.87;1.80;;;;;;;;;;5113549;27;20497;-71
2022/06/02 07:31:25;;;;;;;2.60;1.70;;;;;;;;;;5116345;27;20769;-70
2022/06/02 07:33:55;;;;;;;4.80;2.00;;;;;;;;;;5114300;27;20485;-71
2022/06/02 07:36:47;;;;;;;3.10;1.63;;;;;;;;;;5115298;27;20493;-70
2022/06/02 07:39:33;;;;;;;2.63;1.80;;;;;;;;;;5115422;27;20457;-71
2022/06/02 07:42:28;;;;;;;3.17;1.73;;;;;;;;;;5115395;28;20511;-70
2022/06/02 07:45:20;;;;;;;7.00;1.70;;;;;;;;;;5079750;27;20491;-70
2022/06/02 07:48:03;;;;;;;2.20;1.63;;;;;;;;;;5117467;27;20569;-70
2022/06/02 07:50:36;;;;;;;7.63;1.83;;;;;;;;;;5116393;27;20473;-72
2022/06/02 07:53:09;;;;;;;2.50;1.63;;;;;;;;;;5115703;27;20455;-71
2022/06/02 07:55:45;;;;;;;3.43;1.40;;;;;;;;;;5114829;27;20493;-70
2022/06/02 07:58:21;;;;;;;1.70;1.03;;;;;;;;;;5115014;27;20468;-69
2022/06/02 08:00:53;;;;;;;3.30;1.50;;;;;;;;;;5097395;28;20479;-70
2022/06/02 08:03:36;;;;;;;2.27;1.40;;;;;;;;;;5109765;27;20462;-70
2022/06/02 08:06:09;;;;;;;2.60;1.40;;;;;;;;;;5105415;27;20448;-69
2022/06/02 08:08:43;;;;;;;3.13;1.60;;;;;;;;;;5102401;28;20458;-72
2022/06/02 08:11:32;;;;;;;3.23;1.70;;;;;;;;;;5109937;27;20465;-70
2022/06/02 08:14:10;;;;;;;4.90;1.53;;;;;;;;;;5108243;27;20491;-71
2022/06/02 08:16:49;;;;;;;4.43;1.70;;;;;;;;;;5114780;27;21135;-70
2022/06/02 08:19:24;;;;;;;2.53;1.90;;;;;;;;;;5114511;28;20494;-71
2022/06/02 08:21:55;;;;;;;3.13;1.87;;;;;;;;;;5115514;27;20458;-71
2022/06/02 08:24:39;;;;;;;2.53;1.50;;;;;;;;;;5115285;28;20459;-70
2022/06/02 08:27:24;;;;;;;3.67;1.43;;;;;;;;;;5095303;28;20443;-71
2022/06/02 08:30:11;;;;;;;2.33;1.57;;;;;;;;;;5091198;28;20475;-70
2022/06/02 08:32:56;;;;;;;2.60;1.40;;;;;;;;;;5113679;27;20541;-71
2022/06/02 08:35:27;;;;;;;3.13;2.00;;;;;;;;;;5114487;27;20455;-71
2022/06/02 08:38:10;;;;;;;2.30;1.40;;;;;;;;;;5114330;27;20458;-70
2022/06/02 08:41:28;;;;;;;4.50;2.40;;;;;;;;;;5113691;27;20857;-70
2022/06/02 08:44:19;;;;;;;2.90;1.53;;;;;;;;;;5049800;28;20515;-69
2022/06/02 08:47:06;;;;;;;2.53;1.50;;;;;;;;;;5027565;28;20470;-74
2022/06/02 08:49:53;;;;;;;3.43;1.47;;;;;;;;;;5031346;28;20498;-70
2022/06/02 08:52:40;;;;;;;1.87;1.07;;;;;;;;;;5065850;28;20468;-71
2022/06/02 08:55:39;;;;;;;3.43;1.37;;;;;;;;;;5095029;28;20494;-71
2022/06/02 08:58:28;;;;;;;2.27;1.30;;;;;;;;;;5112379;27;20867;-69
2022/06/02 09:01:04;;;;;;;2.40;1.40;;;;;;;;;;5085202;27;20459;-71
2022/06/02 09:03:46;;;;;;;2.10;1.20;;;;;;;;;;5133539;27;20724;-69
2022/06/02 09:06:32;;;;;;;3.17;1.50;;;;;;;;;;5134690;27;20450;-69
2022/06/02 09:09:16;;;;;;;2.90;1.10;;;;;;;;;;5117864;27;20515;-70
2022/06/02 09:12:07;;;;;;;3.57;1.40;;;;;;;;;;5113633;28;20448;-69
2022/06/02 09:14:48;;;;;;;2.87;1.20;;;;;;;;;;5103419;28;20468;-68
2022/06/02 09:17:27;;;;;;;3.80;1.50;;;;;;;;;;5114292;27;20474;-71
2022/06/02 09:20:08;;;;;;;6.23;1.93;;;;;;;;;;5115391;27;20498;-70
2022/06/02 09:22:54;;;;;;;5.23;2.30;;;;;;;;;;5108041;28;20541;-70
2022/06/02 09:25:42;;;;;;;3.00;1.10;;;;;;;;;;5115334;28;20458;-70
2022/06/02 09:28:42;;;;;;;4.23;1.33;;;;;;;;;;5115048;27;20537;-70
2022/06/02 09:31:20;;;;;;;5.67;1.50;;;;;;;;;;5108264;28;20551;-70
2022/06/02 09:34:02;;;;;;;2.47;1.23;;;;;;;;;;5108268;28;20806;-70
2022/06/02 09:37:01;;;;;;;2.60;1.40;;;;;;;;;;5114641;27;20482;-71
2022/06/02 09:39:42;;;;;;;2.27;1.10;;;;;;;;;;5111260;28;20459;-71
2022/06/02 09:42:25;;;;;;;3.33;1.20;;;;;;;;;;5112143;28;20462;-71
2022/06/02 09:45:06;;;;;;;3.93;1.50;;;;;;;;;;5114345;28;20531;-72
2022/06/02 09:47:52;;;;;;;4.03;1.00;;;;;;;;;;5114415;28;20462;-70
2022/06/02 09:50:50;;;;;;;3.00;1.50;;;;;;;;;;5094961;28;20534;-71
2022/06/02 09:53:43;;;;;;;2.53;1.20;;;;;;;;;;5100610;28;20454;-71
2022/06/02 09:56:34;;;;;;;3.87;1.40;;;;;;;;;;5096473;28;20483;-70
2022/06/02 09:59:11;;;;;;;2.53;1.27;;;;;;;;;;5052981;28;20503;-70
2022/06/02 10:01:49;;;;;;;2.93;1.10;;;;;;;;;;5107027;28;20512;-70
2022/06/02 10:04:37;;;;;;;4.20;1.93;;;;;;;;;;5104651;28;20644;-70
2022/06/02 10:07:28;;;;;;;3.07;1.33;;;;;;;;;;5100767;28;20460;-71
2022/06/02 10:10:28;;;;;;;1.87;0.90;;;;;;;;;;5097538;28;20455;-72
2022/06/02 10:13:19;;;;;;;4.20;1.73;;;;;;;;;;5111299;28;20925;-70
2022/06/02 10:16:03;;;;;;;2.43;1.50;;;;;;;;;;5114339;28;20537;-71
2022/06/02 10:18:42;;;;;;;3.73;1.93;;;;;;;;;;5113427;28;20541;-70
2022/06/02 10:21:19;;;;;;;2.23;1.10;;;;;;;;;;5114330;28;20866;-71
2022/06/02 10:24:08;;;;;;;2.90;1.50;;;;;;;;;;5114487;28;20439;-71
2022/06/02 10:26:49;;;;;;;2.00;1.00;;;;;;;;;;5114678;28;20447;-71
2022/06/02 10:29:35;;;;;;;2.70;1.43;;;;;;;;;;5113422;28;20439;-70
2022/06/02 10:32:20;;;;;;;2.90;1.73;;;;;;;;;;5114965;28;20554;-70
2022/06/02 10:35:05;;;;;;;1.93;1.00;;;;;;;;;;5089631;28;20464;-70
2022/06/02 10:37:37;;;;;;;2.97;1.20;;;;;;;;;;5109582;28;21100;-70
2022/06/02 10:40:16;;;;;;;2.97;1.83;;;;;;;;;;5111475;28;20477;-71
2022/06/02 10:43:08;;;;;;;4.70;1.30;;;;;;;;;;5114755;28;20435;-70
2022/06/02 10:46:00;;;;;;;4.17;1.50;;;;;;;;;;5074929;28;20549;-70
2022/06/02 10:48:49;;;;;;;4.50;1.40;;;;;;;;;;5099593;28;20553;-70
2022/06/02 10:51:47;;;;;;;3.00;1.30;;;;;;;;;;5114714;28;20446;-71
2022/06/02 10:54:48;;;;;;;2.40;1.60;;;;;;;;;;5102913;27;20519;-70
2022/06/02 10:57:26;;;;;;;3.37;1.50;;;;;;;;;;5133258;27;20498;-72
2022/06/02 11:00:02;;;;;;;3.40;1.63;;;;;;;;;;5105653;28;20475;-70
2022/06/02 11:03:00;;;;;;;2.30;1.30;;;;;;;;;;5113232;27;20557;-70
2022/06/02 11:05:50;;;;;;;3.00;1.40;;;;;;;;;;5117145;27;21074;-70
2022/06/02 11:08:34;;;;;;;2.70;1.10;;;;;;;;;;5115846;27;20732;-70
2022/06/02 11:11:12;;;;;;;4.50;1.53;;;;;;;;;;5117599;27;20455;-70
2022/06/02 11:13:55;;;;;;;2.77;1.30;;;;;;;;;;5116994;27;20866;-71
2022/06/02 11:16:40;;;;;;;3.37;1.57;;;;;;;;;;5073008;27;20450;-70
2022/06/02 11:19:25;;;;;;;2.30;1.47;;;;;;;;;;5116491;27;20576;-70
2022/06/02 11:22:20;;;;;;;2.90;1.07;;;;;;;;;;5117082;28;20737;-71
2022/06/02 11:25:21;;;;;;;2.43;1.10;;;;;;;;;;5069051;28;20552;-73
2022/06/02 11:28:15;;;;;;;1.87;1.13;;;;;;;;;;5054430;28;20457;-71
2022/06/02 11:30:58;;;;;;;2.03;1.00;;;;;;;;;;5053556;28;20515;-70
2022/06/02 11:33:39;;;;;;;4.43;2.10;;;;;;;;;;5084586;27;20469;-71
2022/06/02 11:36:29;;;;;;;2.63;1.27;;;;;;;;;;5107108;28;20872;-70
2022/06/02 11:39:14;;;;;;;8.47;1.83;;;;;;;;;;5116613;27;20450;-70
2022/06/02 11:41:49;;;;;;;2.17;1.00;;;;;;;;;;5106658;27;20462;-72
2022/06/02 11:44:32;;;;;;;1.70;0.87;;;;;;;;;;5113342;27;20549;-71
2022/06/02 11:47:34;;;;;;;2.33;1.30;;;;;;;;;;5113287;27;20498;-71
2022/06/02 11:50:23;;;;;;;2.50;1.33;;;;;;;;;;5114817;27;20504;-72
2022/06/02 11:53:01;;;;;;;4.30;1.27;;;;;;;;;;5115090;28;20490;-70
2022/06/02 11:55:41;;;;;;;2.20;1.00;;;;;;;;;;5117167;27;20462;-71
2022/06/02 11:58:37;;;;;;;2.90;1.13;;;;;;;;;;5099940;28;20917;-70
2022/06/02 12:01:34;;;;;;;2.20;1.20;;;;;;;;;;5108066;27;20863;-71
2022/06/02 12:04:21;;;;;;;2.93;1.20;;;;;;;;;;5110802;27;20467;-70
2022/06/02 12:07:07;;;;;;;2.67;1.23;;;;;;;;;;5108771;28;20478;-69
2022/06/02 12:09:54;;;;;;;2.03;1.33;;;;;;;;;;5114977;27;20497;-69
2022/06/02 12:12:29;;;;;;;5.93;1.13;;;;;;;;;;5116379;27;20455;-70
2022/06/02 12:15:16;;;;;;;3.53;1.30;;;;;;;;;;5116326;27;20457;-69
2022/06/02 12:17:52;;;;;;;4.33;1.50;;;;;;;;;;5117323;27;20494;-70
2022/06/02 12:20:36;;;;;;;2.40;1.17;;;;;;;;;;5116670;27;20450;-70
2022/06/02 12:23:32;;;;;;;4.63;1.77;;;;;;;;;;5105355;28;20467;-71
2022/06/02 12:26:14;;;;;;;2.70;1.13;;;;;;;;;;5092182;27;20459;-71
2022/06/02 12:28:51;;;;;;;2.40;1.33;;;;;;;;;;5111377;27;20459;-70
2022/06/02 12:31:56;;;;;;;2.40;1.20;;;;;;;;;;5102785;27;20506;-71
2022/06/02 12:34:53;;;;;;;2.27;1.53;;;;;;;;;;5100040;28;20459;-71
2022/06/02 12:37:40;;;;;;;4.87;1.47;;;;;;;;;;5110404;28;20568;-71
2022/06/02 12:40:32;;;;;;;2.20;1.20;;;;;;;;;;5100392;27;20490;-69
2022/06/02 12:43:28;;;;;;;4.27;1.80;;;;;;;;;;5107489;27;21162;-70
2022/06/02 12:46:00;;;;;;;3.40;1.30;;;;;;;;;;5110513;27;20455;-69
2022/06/02 12:48:47;;;;;;;3.83;1.40;;;;;;;;;;5120050;27;20473;-70
2022/06/02 12:51:28;;;;;;;4.07;1.23;;;;;;;;;;5112507;27;20467;-70
2022/06/02 12:54:34;;;;;;;2.03;1.03;;;;;;;;;;5099781;27;20454;-70
2022/06/02 12:57:30;;;;;;;2.80;1.20;;;;;;;;;;5048144;28;20486;-70
2022/06/02 13:00:21;;;;;;;2.30;1.30;;;;;;;;;;5049092;28;20453;-70
2022/06/02 13:06:31;;;;;;;2.70;1.50;;;;;;;;;;5050083;28;20466;-70
2022/06/02 13:09:13;;;;;;;2.93;1.77;;;;;;;;;;5108448;27;20470;-70
2022/06/02 13:11:58;;;;;;;3.30;1.83;;;;;;;;;;5112991;27;21041;-70
2022/06/02 13:14:44;;;;;;;3.33;1.37;;;;;;;;;;5100235;28;21118;-70
2022/06/02 13:17:23;;;;;;;2.87;1.60;;;;;;;;;;5113878;28;20485;-69
2022/06/02 13:20:07;;;;;;;2.43;1.43;;;;;;;;;;5109038;27;20517;-69
2022/06/02 13:22:45;;;;;;;3.10;1.20;;;;;;;;;;5110804;28;20446;-71
2022/06/02 13:25:35;;;;;;;2.57;1.30;;;;;;;;;;5111216;28;20459;-71
2022/06/02 13:28:24;;;;;;;3.37;1.30;;;;;;;;;;5112551;28;20473;-72
2022/06/02 13:31:10;;;;;;;2.20;1.20;;;;;;;;;;5110853;28;20466;-69
2022/06/02 13:33:53;;;;;;;4.33;1.80;;;;;;;;;;5107033;28;20492;-69
2022/06/02 13:36:29;;;;;;;4.43;1.37;;;;;;;;;;5114664;28;20537;-71
2022/06/02 13:39:07;;;;;;;3.40;1.40;;;;;;;;;;5113306;28;20490;-69
2022/06/02 13:41:55;;;;;;;4.23;1.70;;;;;;;;;;5114438;28;20561;-71
2022/06/02 13:44:44;;;;;;;4.67;1.37;;;;;;;;;;5110972;27;20455;-70
2022/06/02 13:47:30;;;;;;;3.50;2.10;;;;;;;;;;5100081;27;20467;-71
2022/06/02 13:50:25;;;;;;;2.90;1.40;;;;;;;;;;5113495;28;20478;-70
2022/06/02 13:53:16;;;;;;;3.20;1.73;;;;;;;;;;5111988;28;20462;-70
2022/06/02 13:59:06;;;;;;;4.30;2.13;;;;;;;;;;5113860;28;20516;-71
2022/06/02 14:01:52;;;;;;;3.37;1.30;;;;;;;;;;5106155;28;20500;-71
2022/06/02 14:04:38;;;;;;;2.23;1.33;;;;;;;;;;5087205;28;20474;-70
2022/06/02 14:10:38;;;;;;;2.73;1.33;;;;;;;;;;5110336;28;20568;-71
2022/06/02 14:13:14;;;;;;;2.63;0.90;;;;;;;;;;5022380;28;20872;-71
2022/06/02 14:15:50;;;;;;;2.63;1.23;;;;;;;;;;5083629;28;20463;-72
2022/06/02 14:18:35;;;;;;;3.90;1.20;;;;;;;;;;5107885;28;20766;-70
2022/06/02 14:21:10;;;;;;;4.63;1.67;;;;;;;;;;5110918;28;20542;-70
2022/06/02 14:23:52;;;;;;;4.63;1.20;;;;;;;;;;5113315;28;20469;-70
2022/06/02 14:26:29;;;;;;;5.10;1.40;;;;;;;;;;5114011;28;20482;-70
2022/06/02 14:29:23;;;;;;;2.07;1.03;;;;;;;;;;5104881;28;20466;-70
2022/06/02 14:31:58;;;;;;;6.00;1.80;;;;;;;;;;5101563;27;20455;-71
2022/06/02 14:34:43;;;;;;;2.10;1.20;;;;;;;;;;5114745;27;20534;-71
2022/06/02 14:37:17;;;;;;;2.63;1.57;;;;;;;;;;5115161;27;20515;-71
2022/06/02 14:39:52;;;;;;;4.47;1.73;;;;;;;;;;5117471;27;20808;-72
2022/06/02 14:45:18;;;;;;;2.73;1.23;;;;;;;;;;5116321;27;20454;-73
2022/06/02 14:47:50;;;;;;;4.67;1.23;;;;;;;;;;5117282;27;20446;-70
2022/06/02 14:50:31;;;;;;;2.37;1.20;;;;;;;;;;5112457;27;20439;-70
2022/06/02 14:53:16;;;;;;;1.90;0.80;;;;;;;;;;5110689;28;20504;-71
2022/06/02 14:56:00;;;;;;;3.07;1.30;;;;;;;;;;5096096;28;20979;-72
2022/06/02 14:58:39;;;;;;;4.63;1.00;;;;;;;;;;5107756;28;20474;-72
2022/06/02 15:01:14;;;;;;;2.80;1.10;;;;;;;;;;5107237;28;20467;-73
2022/06/02 15:04:02;;;;;;;2.00;1.30;;;;;;;;;;5114599;27;20454;-73
2022/06/02 15:06:34;;;;;;;3.30;1.63;;;;;;;;;;5085131;27;20566;-72
2022/06/02 15:09:23;;;;;;;3.20;1.70;;;;;;;;;;5116485;28;20873;-71
2022/06/02 15:12:10;;;;;;;3.33;1.17;;;;;;;;;;5110976;27;20498;-72
2022/06/02 15:14:53;;;;;;;4.00;1.37;;;;;;;;;;5111867;27;20466;-70
2022/06/02 15:17:41;;;;;;;3.17;1.20;;;;;;;;;;5115435;27;20459;-70
2022/06/02 15:20:17;;;;;;;2.03;1.00;;;;;;;;;;5102918;27;20563;-71
2022/06/02 15:23:16;;;;;;;3.23;1.10;;;;;;;;;;5112466;27;20454;-71
2022/06/02 15:26:21;;;;;;;4.37;1.80;;;;;;;;;;5109283;27;20799;-72
2022/06/02 15:29:06;;;;;;;3.77;1.77;;;;;;;;;;5115103;27;20530;-72
2022/06/02 15:31:41;;;;;;;4.73;1.00;;;;;;;;;;5079041;28;20465;-72
2022/06/02 15:34:31;;;;;;;3.83;1.70;;;;;;;;;;5115301;27;20898;-71
2022/06/02 15:37:16;;;;;;;2.40;1.20;;;;;;;;;;5116116;27;20566;-71
2022/06/02 15:39:57;;;;;;;2.20;1.40;;;;;;;;;;5114781;27;20506;-71
2022/06/02 15:42:40;;;;;;;2.50;1.30;;;;;;;;;;5107553;27;20446;-72
2022/06/02 15:45:26;;;;;;;2.40;1.10;;;;;;;;;;5114956;27;20508;-71
2022/06/02 15:48:03;;;;;;;2.53;1.33;;;;;;;;;;5115680;27;20469;-71
2022/06/02 15:51:04;;;;;;;4.90;1.33;;;;;;;;;;5113513;27;20454;-71
2022/06/02 15:53:47;;;;;;;4.83;2.27;;;;;;;;;;5110267;27;20453;-70
2022/06/02 15:59:32;;;;;;;4.17;1.33;;;;;;;;;;5093197;28;20479;-72
2022/06/02 16:02:21;;;;;;;5.10;1.27;;;;;;;;;;5110223;28;20455;-72
2022/06/02 16:05:08;;;;;;;2.57;1.50;;;;;;;;;;5103142;28;21038;-71
2022/06/02 16:08:00;;;;;;;1.90;1.00;;;;;;;;;;5114960;27;20458;-71
2022/06/02 16:13:55;;;;;;;3.67;1.17;;;;;;;;;;5110650;28;20502;-72
2022/06/02 16:16:40;;;;;;;1.97;1.10;;;;;;;;;;5096227;28;20458;-72
2022/06/02 16:19:25;;;;;;;4.50;1.43;;;;;;;;;;5072205;28;20505;-72
2022/06/02 16:22:12;;;;;;;3.40;1.23;;;;;;;;;;5107407;27;20483;-72
2022/06/02 16:24:49;;;;;;;2.43;0.90;;;;;;;;;;5102349;27;20471;-72
2022/06/02 16:30:51;;;;;;;2.60;1.17;;;;;;;;;;5097488;27;20461;-71
2022/06/02 16:36:34;;;;;;;2.20;1.13;;;;;;;;;;5108349;28;20451;-71
2022/06/02 16:39:13;;;;;;;3.30;1.40;;;;;;;;;;5098317;28;20499;-72